Time;durP1;ratioP1;P1;durP2;ratioP2;P2;SDS_P1;SDS_P2;PMS_P1;PMS_P2;Temp;Humidity;BMP_temperature;BMP_pressure;BME280_temperature;BME280_humidity;BME280_pressure;Samples;Min_cycle;Max_cycle;Signal;HPM_P1;HPM_P2
2021/11/14 00:01:30;;;;;;;26.93;21.27;;;;;;;0.45;100.00;100904.69;1727255;82;21064;-72
2021/11/14 00:03:57;;;;;;;28.43;21.47;;;;;;;0.43;100.00;100915.94;1724337;82;20968;-74
2021/11/14 00:06:23;;;;;;;22.93;19.50;;;;;;;0.41;100.00;100913.92;1727787;83;21043;-73
2021/11/14 00:08:50;;;;;;;25.80;19.80;;;;;;;0.36;100.00;100912.23;1729491;82;21052;-74
2021/11/14 00:11:18;;;;;;;34.53;20.37;;;;;;;0.32;100.00;100912.20;1705378;83;21203;-76
2021/11/14 00:13:46;;;;;;;28.90;18.93;;;;;;;0.30;100.00;100903.09;1705612;83;20983;-74
2021/11/14 00:16:14;;;;;;;30.20;20.00;;;;;;;0.29;100.00;100908.04;1728726;82;21610;-74
2021/11/14 00:18:41;;;;;;;19.13;15.43;;;;;;;0.32;100.00;100908.23;1705680;83;21075;-74
2021/11/14 00:21:08;;;;;;;27.87;19.53;;;;;;;0.31;100.00;100909.22;1729066;82;21017;-74
2021/11/14 00:23:35;;;;;;;19.07;14.93;;;;;;;0.31;100.00;100914.02;1729970;82;21264;-74
2021/11/14 00:26:02;;;;;;;23.90;18.67;;;;;;;0.32;100.00;100909.56;1730082;82;20978;-72
2021/11/14 00:28:28;;;;;;;27.80;17.23;;;;;;;0.29;100.00;100902.75;1729224;82;20948;-73
2021/11/14 00:31:00;;;;;;;24.70;17.80;;;;;;;0.27;100.00;100909.19;1715015;82;21022;-74
2021/11/14 00:33:26;;;;;;;35.50;21.90;;;;;;;0.29;100.00;100906.71;1721595;83;21011;-73
2021/11/14 00:35:52;;;;;;;23.40;18.00;;;;;;;0.26;100.00;100906.20;1722875;83;21177;-72
2021/11/14 00:38:20;;;;;;;23.17;17.50;;;;;;;0.20;100.00;100899.70;1721335;83;21504;-73
2021/11/14 00:40:47;;;;;;;25.23;19.40;;;;;;;0.19;100.00;100902.52;1698464;83;21039;-74
2021/11/14 00:43:13;;;;;;;27.03;19.23;;;;;;;0.20;100.00;100898.37;1721506;83;21572;-73
2021/11/14 00:45:40;;;;;;;25.33;18.70;;;;;;;0.21;100.00;100892.11;1721342;83;21528;-72
2021/11/14 00:48:07;;;;;;;25.23;18.40;;;;;;;0.27;100.00;100890.67;1722692;81;21051;-73
2021/11/14 00:50:34;;;;;;;27.37;19.63;;;;;;;0.27;100.00;100885.38;1698699;83;21083;-74
2021/11/14 00:53:02;;;;;;;29.83;20.20;;;;;;;0.24;100.00;100882.53;1699744;83;21026;-75
2021/11/14 00:55:32;;;;;;;25.03;20.63;;;;;;;0.21;100.00;100889.95;1669451;84;20990;-75
2021/11/14 00:57:58;;;;;;;21.33;17.20;;;;;;;0.17;100.00;100889.92;1669281;84;21034;-72
2021/11/14 01:00:25;;;;;;;28.23;19.77;;;;;;;0.20;100.00;100882.51;1675956;83;21280;-75
2021/11/14 01:02:52;;;;;;;29.53;20.40;;;;;;;0.26;100.00;100877.09;1723160;83;20955;-74
2021/11/14 01:05:19;;;;;;;22.70;17.23;;;;;;;0.31;100.00;100876.14;1723397;83;21082;-75
2021/11/14 01:07:47;;;;;;;27.20;18.77;;;;;;;0.38;100.00;100878.52;1721583;83;21563;-72
2021/11/14 01:10:16;;;;;;;25.23;17.80;;;;;;;0.44;100.00;100879.20;1719545;83;21030;-71
2021/11/14 01:12:43;;;;;;;23.57;18.00;;;;;;;0.48;100.00;100876.58;1717298;83;21122;-73
2021/11/14 01:15:10;;;;;;;28.73;18.93;;;;;;;0.48;100.00;100881.88;1722863;83;21519;-74
2021/11/14 01:17:41;;;;;;;26.37;18.33;;;;;;;0.47;100.00;100882.88;1721570;83;22144;-72
2021/11/14 01:20:14;;;;;;;23.60;18.80;;;;;;;0.42;100.00;100875.90;1720521;83;20950;-74
2021/11/14 01:22:41;;;;;;;22.37;16.20;;;;;;;0.42;100.00;100875.90;1699265;83;21006;-69
2021/11/14 01:25:09;;;;;;;22.63;17.27;;;;;;;0.42;100.00;100877.22;1680478;85;22351;-70
2021/11/14 01:27:36;;;;;;;22.40;14.40;;;;;;;0.44;100.00;100875.23;1680368;84;21005;-71
2021/11/14 01:30:11;;;;;;;24.83;19.47;;;;;;;0.53;100.00;100880.11;1696845;82;20970;-69
2021/11/14 01:32:38;;;;;;;27.47;17.03;;;;;;;0.56;100.00;100877.98;1732661;82;20988;-70
2021/11/14 01:35:06;;;;;;;20.13;15.23;;;;;;;0.62;100.00;100883.14;1705643;83;21519;-70
2021/11/14 01:37:33;;;;;;;20.13;16.80;;;;;;;0.64;100.00;100879.34;1713494;83;21264;-73
2021/11/14 01:40:00;;;;;;;20.83;15.77;;;;;;;0.62;100.00;100878.68;1724693;83;20987;-71
2021/11/14 01:42:28;;;;;;;27.40;21.70;;;;;;;0.63;100.00;100887.42;1729861;83;20998;-71
2021/11/14 01:44:54;;;;;;;35.20;18.77;;;;;;;0.53;100.00;100883.56;1723146;82;21066;-75
2021/11/14 01:47:20;;;;;;;23.63;16.77;;;;;;;0.46;100.00;100882.54;1702225;83;21099;-71
2021/11/14 01:49:47;;;;;;;31.70;19.20;;;;;;;0.48;100.00;100886.36;1726556;81;21113;-70
2021/11/14 01:52:27;;;;;;;25.03;17.47;;;;;;;0.49;100.00;100886.67;1705255;83;20976;-72
2021/11/14 01:54:53;;;;;;;28.07;18.77;;;;;;;0.47;100.00;100886.85;1677909;84;21069;-70
2021/11/14 01:57:20;;;;;;;28.13;19.83;;;;;;;0.43;100.00;100886.83;1722730;83;21001;-71
2021/11/14 01:59:46;;;;;;;27.67;20.10;;;;;;;0.37;100.00;100882.15;1727604;83;21558;-72
2021/11/14 02:02:13;;;;;;;30.33;19.23;;;;;;;0.37;100.00;100875.53;1730007;83;21010;-71
2021/11/14 02:04:41;;;;;;;28.53;19.87;;;;;;;0.40;100.00;100889.77;1729277;83;21542;-69
2021/11/14 02:07:09;;;;;;;27.27;22.03;;;;;;;0.44;100.00;100888.47;1703433;83;21564;-70
2021/11/14 02:09:38;;;;;;;31.20;21.87;;;;;;;0.48;100.00;100891.66;1725977;83;21005;-69
2021/11/14 02:12:06;;;;;;;29.97;22.53;;;;;;;0.49;100.00;100890.64;1728544;83;21066;-68
2021/11/14 02:14:34;;;;;;;36.37;23.93;;;;;;;0.51;100.00;100890.01;1729378;83;20971;-69
2021/11/14 02:17:01;;;;;;;34.53;24.33;;;;;;;0.49;100.00;100891.48;1719106;82;20999;-69
2021/11/14 02:19:28;;;;;;;48.23;29.73;;;;;;;0.53;100.00;100889.38;1715042;82;21035;-71
2021/11/14 02:21:54;;;;;;;46.87;30.10;;;;;;;0.54;100.00;100896.30;1703203;83;21044;-74
2021/11/14 02:24:21;;;;;;;41.70;24.20;;;;;;;0.49;100.00;100895.45;1736098;82;21627;-69
2021/11/14 02:26:47;;;;;;;41.27;28.93;;;;;;;0.50;100.00;100893.64;1734198;81;21974;-69
2021/11/14 02:29:14;;;;;;;41.00;26.17;;;;;;;0.53;100.00;100899.97;1720260;82;22201;-69
2021/11/14 02:31:42;;;;;;;38.13;22.77;;;;;;;0.53;100.00;100893.34;1690104;84;21547;-71
2021/11/14 02:34:09;;;;;;;38.90;27.33;;;;;;;0.53;100.00;100894.14;1703248;84;21601;-69
2021/11/14 02:36:37;;;;;;;45.97;29.07;;;;;;;0.56;100.00;100899.15;1703079;83;21056;-71
2021/11/14 02:39:05;;;;;;;37.20;25.33;;;;;;;0.59;100.00;100903.29;1651200;84;21010;-71
2021/11/14 02:41:32;;;;;;;45.77;28.43;;;;;;;0.59;100.00;100898.00;1724420;82;21501;-70
2021/11/14 02:43:59;;;;;;;40.93;26.17;;;;;;;0.54;100.00;100900.27;1685444;84;21071;-71
2021/11/14 02:46:26;;;;;;;44.83;30.50;;;;;;;0.55;100.00;100898.80;1710117;83;21030;-71
2021/11/14 02:48:52;;;;;;;38.10;27.47;;;;;;;0.60;100.00;100903.14;1725784;83;21037;-71
2021/11/14 02:51:23;;;;;;;38.17;28.07;;;;;;;0.62;100.00;100900.35;1728455;81;21175;-73
2021/11/14 02:53:50;;;;;;;37.70;24.33;;;;;;;0.61;100.00;100896.87;1704340;83;20915;-71
2021/11/14 02:56:18;;;;;;;37.10;26.70;;;;;;;0.62;100.00;100903.83;1702560;83;20995;-71
2021/11/14 02:58:45;;;;;;;35.17;23.90;;;;;;;0.63;100.00;100899.34;1691399;84;21059;-71
2021/11/14 03:01:17;;;;;;;39.47;25.17;;;;;;;0.62;100.00;100898.53;1713045;83;21597;-71
2021/11/14 03:03:44;;;;;;;32.27;20.70;;;;;;;0.67;100.00;100897.55;1700553;83;21022;-75
2021/11/14 03:06:11;;;;;;;28.33;19.13;;;;;;;0.75;100.00;100894.97;1721627;83;21061;-72
2021/11/14 03:08:37;;;;;;;24.50;19.00;;;;;;;0.79;100.00;100891.02;1715483;83;20963;-73
2021/11/14 03:11:05;;;;;;;27.30;19.70;;;;;;;0.84;100.00;100884.75;1734345;82;21535;-77
2021/11/14 03:13:31;;;;;;;22.33;16.03;;;;;;;0.84;100.00;100886.56;1731777;82;20979;-71
2021/11/14 03:16:00;;;;;;;24.90;18.57;;;;;;;0.78;100.00;100885.86;1748779;81;21000;-74
2021/11/14 03:18:26;;;;;;;22.27;17.43;;;;;;;0.73;100.00;100884.18;1762012;81;21547;-70
2021/11/14 03:20:53;;;;;;;22.70;15.43;;;;;;;0.72;100.00;100887.84;1746172;82;21010;-70
2021/11/14 03:23:21;;;;;;;25.30;18.87;;;;;;;0.73;100.00;100885.02;1745472;82;21064;-70
2021/11/14 03:25:48;;;;;;;24.73;16.27;;;;;;;0.70;100.00;100883.18;1701401;83;21098;-79
2021/11/14 03:28:14;;;;;;;27.60;18.70;;;;;;;0.70;100.00;100887.98;1675577;84;21043;-76
2021/11/14 03:30:42;;;;;;;25.20;18.00;;;;;;;0.69;100.00;100885.00;1713420;82;20972;-70
2021/11/14 03:33:12;;;;;;;24.50;16.87;;;;;;;0.69;100.00;100889.45;1742778;82;21032;-70
2021/11/14 03:35:55;;;;;;;27.77;18.57;;;;;;;0.69;100.00;100888.13;1743106;82;21011;-70
2021/11/14 03:38:28;;;;;;;22.97;16.03;;;;;;;0.67;100.00;100882.98;1719318;83;20952;-70
2021/11/14 03:40:55;;;;;;;28.30;17.77;;;;;;;0.65;100.00;100888.95;1718661;83;21946;-72
2021/11/14 03:43:22;;;;;;;27.73;18.83;;;;;;;0.58;100.00;100884.41;1674963;83;21508;-71
2021/11/14 03:45:49;;;;;;;24.70;15.03;;;;;;;0.58;100.00;100885.73;1721982;81;21467;-72
2021/11/14 03:48:16;;;;;;;25.97;19.00;;;;;;;0.61;100.00;100883.63;1699228;84;21543;-72
2021/11/14 03:50:42;;;;;;;33.80;17.83;;;;;;;0.59;100.00;100885.59;1695649;84;21050;-73
2021/11/14 03:53:09;;;;;;;26.60;17.40;;;;;;;0.58;100.00;100878.63;1692296;84;21260;-70
2021/11/14 03:55:36;;;;;;;34.60;18.53;;;;;;;0.61;100.00;100888.93;1693644;84;21084;-68
2021/11/14 03:58:03;;;;;;;29.93;16.03;;;;;;;0.54;99.89;100889.69;1707071;83;21705;-69
2021/11/14 04:00:34;;;;;;;24.77;19.13;;;;;;;0.48;99.99;100879.75;1732235;81;20964;-72
2021/11/14 04:03:00;;;;;;;27.67;17.73;;;;;;;0.51;100.00;100883.39;1742038;82;21482;-71
2021/11/14 04:05:30;;;;;;;26.87;18.33;;;;;;;0.55;100.00;100884.25;1741928;81;21140;-72
2021/11/14 04:07:58;;;;;;;24.10;18.30;;;;;;;0.50;100.00;100883.05;1730828;82;21039;-70
2021/11/14 04:10:26;;;;;;;25.57;18.73;;;;;;;0.46;100.00;100881.70;1728065;82;21003;-72
2021/11/14 04:12:52;;;;;;;20.60;16.23;;;;;;;0.48;100.00;100878.42;1730591;83;20939;-71
2021/11/14 04:15:18;;;;;;;30.40;17.90;;;;;;;0.52;100.00;100882.41;1729450;83;21075;-72
2021/11/14 04:17:45;;;;;;;25.97;15.93;;;;;;;0.50;100.00;100877.76;1680895;84;21121;-71
2021/11/14 04:20:13;;;;;;;33.50;20.97;;;;;;;0.51;100.00;100884.23;1696870;83;21034;-70
2021/11/14 04:22:39;;;;;;;31.27;22.23;;;;;;;0.53;100.00;100886.73;1702297;83;21003;-72
2021/11/14 04:25:08;;;;;;;47.97;23.17;;;;;;;0.50;99.99;100877.27;1726797;83;21010;-70
2021/11/14 04:27:34;;;;;;;26.30;18.00;;;;;;;0.48;99.94;100881.88;1716462;83;21002;-68
2021/11/14 04:30:03;;;;;;;27.73;19.07;;;;;;;0.53;100.00;100886.73;1711870;83;21097;-73
2021/11/14 04:32:29;;;;;;;40.27;24.70;;;;;;;0.55;100.00;100884.25;1718658;82;21535;-71
2021/11/14 04:34:56;;;;;;;37.50;24.93;;;;;;;0.57;99.99;100884.94;1733090;82;21477;-71
2021/11/14 04:37:22;;;;;;;26.40;20.43;;;;;;;0.61;100.00;100887.60;1727788;82;20994;-71
2021/11/14 04:39:48;;;;;;;33.53;22.97;;;;;;;0.66;99.97;100881.84;1725323;83;21004;-71
2021/11/14 04:42:15;;;;;;;26.60;18.77;;;;;;;0.64;99.69;100881.98;1729308;83;21269;-70
2021/11/14 04:44:41;;;;;;;30.17;19.37;;;;;;;0.66;99.65;100885.81;1730704;81;20919;-71
2021/11/14 04:47:07;;;;;;;32.23;19.97;;;;;;;0.65;99.43;100888.95;1727910;83;20969;-71
2021/11/14 04:49:36;;;;;;;26.47;18.63;;;;;;;0.65;99.43;100882.81;1739402;82;21493;-72
2021/11/14 04:52:05;;;;;;;31.77;20.73;;;;;;;0.64;99.23;100879.34;1752260;82;21119;-71
2021/11/14 04:54:31;;;;;;;28.20;18.73;;;;;;;0.61;99.09;100880.16;1751473;82;21449;-70
2021/11/14 04:56:58;;;;;;;29.97;17.33;;;;;;;0.60;99.02;100881.97;1734295;81;21528;-71
2021/11/14 04:59:25;;;;;;;44.30;22.53;;;;;;;0.58;99.12;100882.60;1690734;84;20982;-70
2021/11/14 05:01:51;;;;;;;46.00;24.53;;;;;;;0.57;99.10;100889.40;1682096;84;21114;-70
2021/11/14 05:04:18;;;;;;;43.83;25.60;;;;;;;0.55;99.31;100892.19;1710199;84;21070;-72
2021/11/14 05:06:44;;;;;;;50.20;28.60;;;;;;;0.56;99.42;100894.34;1694109;83;21063;-70
2021/11/14 05:09:11;;;;;;;62.93;31.57;;;;;;;0.53;99.36;100894.14;1719463;83;20967;-70
2021/11/14 05:11:37;;;;;;;58.73;30.17;;;;;;;0.56;99.58;100902.28;1724718;82;21062;-70
2021/11/14 05:14:03;;;;;;;58.00;33.00;;;;;;;0.59;99.80;100898.83;1698909;83;21043;-70
2021/11/14 05:16:31;;;;;;;58.37;34.07;;;;;;;0.64;99.94;100904.98;1697435;83;21592;-72
2021/11/14 05:18:58;;;;;;;58.73;36.20;;;;;;;0.64;99.94;100899.19;1692049;83;21843;-75
2021/11/14 05:21:24;;;;;;;45.83;28.73;;;;;;;0.64;100.00;100894.39;1707625;83;21028;-71
2021/11/14 05:23:52;;;;;;;51.73;28.73;;;;;;;0.73;100.00;100897.42;1725522;83;32516;-71
2021/11/14 05:26:18;;;;;;;41.83;26.10;;;;;;;0.77;100.00;100894.78;1725337;82;20967;-72
2021/11/14 05:28:45;;;;;;;42.30;24.60;;;;;;;0.78;100.00;100900.42;1695811;83;21071;-71
2021/11/14 05:31:12;;;;;;;40.53;24.70;;;;;;;0.76;100.00;100899.77;1708880;83;21058;-71
2021/11/14 05:33:39;;;;;;;46.77;26.97;;;;;;;0.74;100.00;100909.19;1729327;83;21021;-69
2021/11/14 05:36:05;;;;;;;43.37;25.00;;;;;;;0.72;100.00;100911.14;1729089;83;20953;-70
2021/11/14 05:38:32;;;;;;;37.77;21.00;;;;;;;0.73;100.00;100914.14;1705075;83;20966;-72
2021/11/14 05:41:00;;;;;;;38.00;25.40;;;;;;;0.80;100.00;100923.13;1706427;83;20940;-72
2021/11/14 05:43:26;;;;;;;46.73;29.80;;;;;;;0.84;100.00;100923.64;1729010;83;21654;-71
2021/11/14 05:45:53;;;;;;;53.83;30.90;;;;;;;0.82;100.00;100921.63;1705524;83;22368;-72
2021/11/14 05:48:19;;;;;;;49.33;29.23;;;;;;;0.83;100.00;100930.75;1728905;83;20999;-72
2021/11/14 05:50:46;;;;;;;46.43;26.13;;;;;;;0.87;100.00;100930.77;1704197;82;21588;-73
2021/11/14 05:53:14;;;;;;;43.33;29.47;;;;;;;0.94;100.00;100931.48;1727723;83;20897;-73
2021/11/14 05:55:42;;;;;;;50.20;30.27;;;;;;;0.94;100.00;100934.12;1705046;83;22003;-73
2021/11/14 05:58:13;;;;;;;66.13;34.80;;;;;;;0.92;100.00;100934.27;1724746;83;21013;-74
2021/11/14 06:05:38;;;;;;;57.47;33.70;;;;;;;1.10;100.00;100929.76;1731467;82;21042;-70
2021/11/14 06:08:08;;;;;;;58.47;35.03;;;;;;;1.13;100.00;100927.27;1728179;83;21124;-68
2021/11/14 06:10:35;;;;;;;71.80;44.50;;;;;;;1.15;100.00;100930.61;1729722;83;20936;-72
2021/11/14 06:13:03;;;;;;;79.50;45.93;;;;;;;1.12;100.00;100930.41;1682714;83;20986;-70
2021/11/14 06:15:30;;;;;;;67.17;42.10;;;;;;;1.09;100.00;100933.39;1729341;83;21491;-72
2021/11/14 06:17:58;;;;;;;67.73;45.20;;;;;;;1.09;100.00;100932.55;1726206;83;20993;-71
2021/11/14 06:20:27;;;;;;;76.37;47.87;;;;;;;1.06;99.91;100941.63;1727552;83;21223;-70
2021/11/14 06:22:56;;;;;;;77.00;51.17;;;;;;;1.02;99.85;100938.97;1728989;82;20986;-71
2021/11/14 06:25:24;;;;;;;60.70;41.67;;;;;;;1.00;99.96;100936.98;1729111;82;21086;-72
2021/11/14 06:27:50;;;;;;;71.23;38.67;;;;;;;1.05;100.00;100944.46;1729170;82;20984;-72
2021/11/14 06:30:16;;;;;;;59.20;36.90;;;;;;;1.02;99.93;100942.11;1687227;84;21037;-69
2021/11/14 06:32:44;;;;;;;61.20;39.93;;;;;;;1.01;100.00;100939.14;1672710;84;20998;-70
2021/11/14 06:35:11;;;;;;;48.43;30.20;;;;;;;1.08;100.00;100938.34;1700897;84;21015;-71
2021/11/14 06:37:37;;;;;;;51.13;32.60;;;;;;;1.10;100.00;100935.05;1709571;83;21047;-69
2021/11/14 06:40:06;;;;;;;43.30;28.20;;;;;;;1.10;100.00;100936.88;1724845;83;21067;-70
2021/11/14 06:42:32;;;;;;;47.17;31.07;;;;;;;1.16;100.00;100939.70;1728284;83;21006;-70
2021/11/14 06:44:59;;;;;;;45.70;31.43;;;;;;;1.16;100.00;100940.19;1718872;81;21371;-82
2021/11/14 06:47:28;;;;;;;36.70;23.37;;;;;;;1.21;100.00;100945.36;1723560;83;21090;-70
2021/11/14 06:49:55;;;;;;;35.80;23.93;;;;;;;1.26;100.00;100947.53;1739097;82;21005;-70
2021/11/14 06:52:22;;;;;;;44.83;26.73;;;;;;;1.20;100.00;100948.98;1677565;83;20980;-72
2021/11/14 06:54:51;;;;;;;37.43;22.87;;;;;;;1.15;100.00;100947.30;1689947;84;21011;-72
2021/11/14 06:57:18;;;;;;;39.60;25.77;;;;;;;1.21;100.00;100951.98;1673581;84;21047;-71
2021/11/14 06:59:46;;;;;;;45.37;26.37;;;;;;;1.24;100.00;100954.83;1697995;84;21021;-71
2021/11/14 07:02:14;;;;;;;44.80;27.67;;;;;;;1.24;100.00;100950.36;1675231;84;21002;-71
2021/11/14 07:04:40;;;;;;;35.67;25.90;;;;;;;1.20;100.00;100950.84;1699667;84;20939;-71
2021/11/14 07:07:07;;;;;;;41.87;26.33;;;;;;;1.16;99.95;100955.59;1713368;82;21020;-70
2021/11/14 07:09:35;;;;;;;35.47;24.73;;;;;;;1.14;99.91;100955.43;1724142;82;21003;-75
2021/11/14 07:12:01;;;;;;;29.43;20.53;;;;;;;1.14;100.00;100946.16;1708363;82;20927;-73
2021/11/14 07:14:27;;;;;;;36.63;21.48;;;;;;;1.18;100.00;100940.39;1729389;81;21687;-75
2021/11/14 07:16:54;;;;;;;34.70;24.27;;;;;;;1.18;100.00;100945.69;1677859;84;21054;-69
2021/11/14 07:19:20;;;;;;;36.60;24.47;;;;;;;1.16;100.00;100946.81;1700813;84;21098;-71
2021/11/14 07:21:47;;;;;;;31.73;21.50;;;;;;;1.18;100.00;100947.50;1725842;82;21141;-69
2021/11/14 07:24:18;;;;;;;36.03;22.77;;;;;;;1.19;100.00;100945.19;1731824;82;20986;-73
2021/11/14 07:26:44;;;;;;;31.50;22.33;;;;;;;1.27;100.00;100947.87;1711487;83;21115;-70
2021/11/14 07:29:12;;;;;;;28.17;20.57;;;;;;;1.30;100.00;100953.67;1710444;83;21006;-76
2021/11/14 07:31:38;;;;;;;29.85;20.70;;;;;;;1.37;100.00;100947.75;1717735;83;20957;-74
2021/11/14 07:34:05;;;;;;;28.90;19.42;;;;;;;1.42;100.00;100940.98;1726601;83;21845;-73
2021/11/14 07:36:32;;;;;;;31.75;22.70;;;;;;;1.48;100.00;100942.17;1703329;83;21021;-73
2021/11/14 07:38:59;;;;;;;36.53;25.57;;;;;;;1.46;100.00;100942.81;1700101;83;21015;-73
2021/11/14 07:41:25;;;;;;;38.70;24.05;;;;;;;1.51;100.00;100940.51;1700041;84;21212;-73
2021/11/14 07:43:52;;;;;;;30.88;21.55;;;;;;;1.59;100.00;100944.02;1703575;82;21016;-73
2021/11/14 07:46:18;;;;;;;38.30;25.52;;;;;;;1.63;100.00;100939.23;1724923;82;21082;-71
2021/11/14 07:48:44;;;;;;;38.15;21.77;;;;;;;1.61;100.00;100935.91;1730419;82;21364;-71
2021/11/14 07:51:11;;;;;;;36.50;23.90;;;;;;;1.56;100.00;100937.72;1726362;82;21147;-71
2021/11/14 07:53:37;;;;;;;32.98;24.00;;;;;;;1.55;100.00;100936.05;1703485;83;21075;-71
2021/11/14 07:56:04;;;;;;;34.10;23.45;;;;;;;1.59;100.00;100942.69;1721077;82;21020;-72
2021/11/14 07:58:31;;;;;;;30.60;23.73;;;;;;;1.64;100.00;100943.53;1720331;82;21993;-70
2021/11/14 08:00:57;;;;;;;30.40;21.15;;;;;;;1.71;100.00;100940.08;1737633;81;20967;-71
2021/11/14 08:03:24;;;;;;;39.08;24.77;;;;;;;1.73;100.00;100935.43;1721362;82;21060;-71
2021/11/14 08:05:51;;;;;;;25.10;18.98;;;;;;;1.74;100.00;100943.73;1733668;81;21021;-73
2021/11/14 08:08:18;;;;;;;31.40;21.42;;;;;;;1.78;100.00;100942.90;1721682;82;21041;-71
2021/11/14 08:10:44;;;;;;;29.57;21.45;;;;;;;1.78;100.00;100935.44;1697837;82;21228;-72
2021/11/14 08:13:10;;;;;;;31.65;20.90;;;;;;;1.80;100.00;100944.07;1734684;82;20986;-71
2021/11/14 08:15:38;;;;;;;37.00;23.55;;;;;;;1.80;100.00;100932.14;1734643;81;20985;-71
2021/11/14 08:18:06;;;;;;;32.53;23.85;;;;;;;1.80;100.00;100928.16;1731149;82;21074;-73
2021/11/14 08:20:36;;;;;;;30.40;21.73;;;;;;;1.80;100.00;100927.67;1709571;82;20982;-72
2021/11/14 08:23:03;;;;;;;50.35;33.95;;;;;;;1.81;100.00;100927.17;1731555;81;21187;-73
2021/11/14 08:25:30;;;;;;;36.45;24.07;;;;;;;1.84;100.00;100930.81;1735762;82;21035;-72
2021/11/14 08:27:58;;;;;;;34.15;23.70;;;;;;;1.85;100.00;100929.34;1737073;81;21001;-72
2021/11/14 08:30:24;;;;;;;35.78;24.70;;;;;;;1.87;100.00;100926.00;1733574;82;21535;-73
2021/11/14 08:32:51;;;;;;;34.83;23.90;;;;;;;1.94;100.00;100927.03;1733526;81;21042;-71
2021/11/14 08:35:19;;;;;;;33.48;22.50;;;;;;;2.02;100.00;100920.39;1736393;81;21099;-72
2021/11/14 08:37:46;;;;;;;33.33;24.02;;;;;;;2.04;100.00;100925.05;1741700;80;20986;-72
2021/11/14 08:40:13;;;;;;;36.13;24.10;;;;;;;2.06;100.00;100913.76;1740412;82;20983;-73
2021/11/14 08:42:40;;;;;;;35.70;25.55;;;;;;;2.05;100.00;100911.30;1734102;81;20946;-74
2021/11/14 08:45:07;;;;;;;38.08;25.37;;;;;;;2.13;100.00;100916.10;1735096;82;21075;-70
2021/11/14 08:47:35;;;;;;;35.92;25.43;;;;;;;2.25;100.00;100913.96;1681487;84;22206;-69
2021/11/14 08:50:03;;;;;;;38.98;24.12;;;;;;;2.29;100.00;100909.14;1728151;83;20971;-71
2021/11/14 08:52:30;;;;;;;39.53;26.85;;;;;;;2.34;100.00;100910.30;1698725;83;21074;-70
2021/11/14 08:54:57;;;;;;;40.15;26.82;;;;;;;2.40;100.00;100912.27;1713452;83;20987;-70
2021/11/14 08:57:23;;;;;;;38.88;26.50;;;;;;;2.43;100.00;100915.11;1748928;81;21513;-69
2021/11/14 08:59:50;;;;;;;38.13;27.48;;;;;;;2.45;100.00;100907.29;1735371;81;26475;-68
2021/11/14 09:02:16;;;;;;;42.85;28.83;;;;;;;2.43;100.00;100911.13;1717712;82;20998;-69
2021/11/14 09:04:43;;;;;;;48.55;30.00;;;;;;;2.50;100.00;100912.09;1699523;84;20983;-74
2021/11/14 09:07:12;;;;;;;46.63;28.23;;;;;;;2.59;100.00;100909.80;1728277;83;21017;-72
2021/11/14 09:09:38;;;;;;;42.25;26.77;;;;;;;2.59;100.00;100906.61;1728185;83;21057;-74
2021/11/14 09:12:06;;;;;;;45.55;29.20;;;;;;;2.60;100.00;100905.61;1714275;83;21116;-71
2021/11/14 09:14:32;;;;;;;54.98;32.95;;;;;;;2.68;100.00;100909.27;1673494;83;21067;-72
2021/11/14 09:17:00;;;;;;;46.53;27.85;;;;;;;2.77;100.00;100909.58;1718591;83;21562;-72
2021/11/14 09:19:26;;;;;;;48.33;31.75;;;;;;;2.90;100.00;100908.55;1728167;83;21011;-70
2021/11/14 09:21:53;;;;;;;56.33;35.28;;;;;;;2.99;100.00;100905.70;1730331;81;21559;-71
2021/11/14 09:24:19;;;;;;;47.30;30.72;;;;;;;3.03;100.00;100903.52;1713547;83;21925;-72
2021/11/14 09:26:45;;;;;;;42.33;29.63;;;;;;;3.06;100.00;100901.87;1717396;83;21546;-75
2021/11/14 09:29:15;;;;;;;51.45;34.27;;;;;;;3.14;100.00;100903.16;1727430;83;21007;-70
2021/11/14 09:31:42;;;;;;;54.98;33.60;;;;;;;3.19;100.00;100907.45;1754927;81;21077;-70
2021/11/14 09:34:08;;;;;;;51.48;34.30;;;;;;;3.24;100.00;100892.32;1758476;81;21054;-70
2021/11/14 09:36:36;;;;;;;48.40;31.37;;;;;;;3.26;100.00;100893.78;1751969;81;21836;-70
2021/11/14 09:39:06;;;;;;;53.42;34.90;;;;;;;3.32;100.00;100888.28;1710817;83;21647;-75
2021/11/14 09:41:37;;;;;;;44.15;31.37;;;;;;;3.36;100.00;100885.10;1718239;83;20967;-72
2021/11/14 09:44:04;;;;;;;52.10;31.77;;;;;;;3.39;100.00;100886.10;1697819;84;21502;-73
2021/11/14 09:46:30;;;;;;;53.83;31.87;;;;;;;3.47;100.00;100886.55;1666184;84;21062;-71
2021/11/14 09:48:58;;;;;;;49.33;30.82;;;;;;;3.55;100.00;100880.38;1711246;83;22115;-69
2021/11/14 09:51:24;;;;;;;47.90;33.40;;;;;;;3.55;100.00;100879.05;1688385;84;21574;-71
2021/11/14 09:53:53;;;;;;;48.38;31.97;;;;;;;3.62;100.00;100879.48;1682254;84;21611;-69
2021/11/14 09:56:19;;;;;;;49.77;33.10;;;;;;;3.68;100.00;100881.45;1722101;83;20896;-75
2021/11/14 09:58:45;;;;;;;59.65;35.10;;;;;;;3.68;100.00;100872.14;1732732;81;21538;-71
2021/11/14 10:01:12;;;;;;;54.03;34.00;;;;;;;3.61;99.24;100872.50;1731044;81;21015;-70
2021/11/14 10:03:38;;;;;;;53.42;37.45;;;;;;;3.56;99.29;100873.53;1752347;81;20955;-70
2021/11/14 10:06:04;;;;;;;54.65;35.73;;;;;;;3.60;99.68;100874.03;1752142;81;21592;-71
2021/11/14 10:08:36;;;;;;;63.28;40.50;;;;;;;3.66;99.84;100869.31;1730564;81;21012;-81
2021/11/14 10:11:03;;;;;;;52.50;34.60;;;;;;;3.70;99.81;100875.44;1722480;83;21070;-70
2021/11/14 10:13:34;;;;;;;56.58;39.13;;;;;;;3.73;99.76;100873.77;1712839;83;21060;-71
2021/11/14 10:16:08;;;;;;;50.70;34.13;;;;;;;3.74;99.59;100867.42;1712899;83;21040;-71
2021/11/14 10:18:38;;;;;;;50.95;34.67;;;;;;;3.80;99.65;100863.23;1717124;83;21059;-74
2021/11/14 10:21:04;;;;;;;59.98;37.80;;;;;;;3.81;99.46;100868.39;1712844;83;20993;-72
2021/11/14 10:23:35;;;;;;;69.75;45.08;;;;;;;3.87;99.45;100866.36;1703460;83;21517;-69
2021/11/14 10:26:07;;;;;;;53.58;36.90;;;;;;;3.97;99.63;100859.47;1712799;83;21188;-69
2021/11/14 10:28:34;;;;;;;59.35;34.70;;;;;;;4.03;99.51;100864.05;1714618;83;20887;-71
2021/11/14 10:31:01;;;;;;;59.93;38.35;;;;;;;4.08;99.41;100859.52;1703583;83;21467;-73
2021/11/14 10:33:28;;;;;;;63.73;41.35;;;;;;;4.14;99.51;100864.14;1724653;82;21005;-72
2021/11/14 10:35:56;;;;;;;50.80;34.18;;;;;;;4.26;99.49;100853.39;1731370;82;21103;-71
2021/11/14 10:38:27;;;;;;;49.67;34.45;;;;;;;4.26;99.49;100853.39;1732685;82;21091;-75
2021/11/14 10:41:03;;;;;;;59.80;38.95;;;;;;;4.33;99.43;100853.81;1695451;83;20987;-69
2021/11/14 10:43:31;;;;;;;58.25;37.75;;;;;;;4.43;99.04;100855.39;1728088;83;21588;-71
2021/11/14 10:45:59;;;;;;;56.35;35.73;;;;;;;4.43;99.04;100855.39;1727955;83;21038;-71
2021/11/14 10:48:27;;;;;;;59.90;40.60;;;;;;;4.41;98.66;100848.93;1700767;83;21043;-72
2021/11/14 10:50:57;;;;;;;65.45;39.90;;;;;;;4.42;98.66;100860.38;1728777;82;21069;-69
2021/11/14 10:53:26;;;;;;;55.12;38.75;;;;;;;4.44;98.73;100857.87;1716754;82;20909;-70
2021/11/14 10:55:59;;;;;;;60.95;38.45;;;;;;;4.50;98.81;100858.49;1716660;83;21492;-71
2021/11/14 10:58:28;;;;;;;59.18;39.98;;;;;;;4.54;98.73;100858.45;1723121;83;21027;-74
2021/11/14 11:00:58;;;;;;;58.52;40.17;;;;;;;4.59;98.72;100851.23;1712467;83;20988;-71
2021/11/14 11:03:33;;;;;;;66.42;40.33;;;;;;;4.63;98.61;100850.69;1697082;83;21623;-73
2021/11/14 11:05:58;;;;;;;68.02;43.98;;;;;;;4.68;98.57;100849.64;1724138;82;21000;-70
2021/11/14 11:08:26;;;;;;;71.33;39.30;;;;;;;4.69;98.25;100856.63;1732247;82;20896;-70
2021/11/14 11:10:57;;;;;;;68.75;44.73;;;;;;;4.71;98.06;100849.26;1722048;83;21419;-72
2021/11/14 11:13:37;;;;;;;66.95;41.15;;;;;;;4.74;97.94;100846.75;1723508;83;21178;-73
2021/11/14 11:16:14;;;;;;;63.50;39.88;;;;;;;4.75;97.90;100834.55;1722618;83;21046;-68
2021/11/14 11:18:44;;;;;;;60.90;37.67;;;;;;;4.78;97.78;100827.55;1720129;83;21584;-70